Météo aéronautique

 

LFSI - St. Dizier/Robin, France
Distance from station: SO 26km
Mise à jour: 29/01/2020 16:30
nuageux
nuageux
 Wind from O
Vent: O 15 km/h
Température: 8°C
Wind Chill: 5°C
Point de rosée: 3°C
Humidité: 71%
Baromètre: 1016 hPa
Clouds: nuageux
Visibility: 10 km
Cloud details: Few Clouds 1341 m
nuageux 1585 m
2020/01/29 15:30 LFSI 291530Z AUTO 27008KT 9999 FEW044 BKN052 08/03 Q1016
LFSO - Nancy/Ochey (faf, France
Distance from station: ESE 62km
Mise à jour: 29/01/2020 16:30
nuageux
nuageux
 Wind from OSO
Vent: OSO 26 km/h
Température: 6°C
Wind Chill: 2°C
Point de rosée: 2°C
Humidité: 76%
Baromètre: 1015 hPa
Clouds: nuageux
Visibility: 10 km
Cloud details: partiellement nuageux 732 m
partiellement nuageux 945 m
nuageux 1311 m
2020/01/29 15:30 LFSO 291530Z AUTO 25014KT 9999 SCT024 SCT031 BKN043 06/02 Q1015
LFOK - Chalons/Vatry Fa, France
Distance from station: O 73km
Mise à jour: 29/01/2020 16:30
couvert
couvert
 Wind from OSO
Vent: OSO 20 km/h
Température: 8°C
Wind Chill: 4°C
Point de rosée: 5°C
Humidité: 82%
Baromètre: 1016 hPa
Clouds: couvert
Visibility: 10 km
Cloud details: Few Clouds 610 m
partiellement nuageux 1036 m
couvert 1585 m
2020/01/29 15:30 LFOK 291530Z AUTO 25011KT 9999 FEW020 SCT034 OVC052 08/05 Q1016 NOSIG
 
LFSN - Nancy/Essey, France
Distance from station: E 77km
Mise à jour: 29/01/2020 16:30
nuageux
nuageux
 Wind from OSO
Vent: OSO 22 km/h
Température: 8°C
Wind Chill: 4°C
Point de rosée: 2°C
Humidité: 66%
Baromètre: 1015 hPa
Clouds: nuageux
Visibility: 10 km
Cloud details: Few Clouds 792 m
partiellement nuageux 1067 m
nuageux 1707 m
2020/01/29 15:30 LFSN 291530Z AUTO 25012KT 9999 FEW026 SCT035 BKN056 08/02 Q1015
LFSG - Epinal/Mirecourt, France
Distance from station: SE 81km
Mise à jour: 29/01/2020 16:30
clair
clair
 Wind from OSO
Vent: OSO 22 km/h
Température: 6°C
Wind Chill: 2°C
Point de rosée: 3°C
Humidité: 81%
Baromètre: 1015 hPa
Résumé: clair
Visibility: greater than 10 km
2020/01/29 15:30 LFSG 291530Z AUTO 25012KT CAVOK 06/03 Q1015
LFJL - Metz-Nancy-Lorra, France
Distance from station: ENE 82km
Mise à jour: 29/01/2020 16:30
clair
clair
 Wind from O
Vent: O 30 km/h
Température: 6°C
Wind Chill: 2°C
Point de rosée: 2°C
Humidité: 76%
Baromètre: 1014 hPa
Résumé: clair
Visibility: greater than 10 km
2020/01/29 15:30 LFJL 291530Z AUTO 27016KT CAVOK 06/02 Q1014 TEMPO FEW020TCU
 
LFQA - Reims/Prunay, France
Distance from station: ONO 89km
Mise à jour: 29/01/2020 16:30
nuageux
nuageux
 Wind from O
Vent: O 13 km/h
Température: 8°C
Wind Chill: 6°C
Point de rosée: 3°C
Humidité: 71%
Baromètre: 1015 hPa
Clouds: nuageux
Visibility: 10 km
Cloud details: Few Clouds 1067 m
nuageux 1311 m
nuageux 1768 m
2020/01/29 15:30 LFQA 291530Z AUTO 27007KT 9999 FEW035 BKN043 BKN058 08/03 Q1015
LFQB - Troyes/Barberey, France
Distance from station: OSO 99km
Mise à jour: 29/01/2020 16:30
couvert
couvert
 Wind from O
Vent: O 17 km/h
Température: 9°C
Wind Chill: 7°C
Point de rosée: 4°C
Humidité: 71%
Baromètre: 1017 hPa
Clouds: couvert
Visibility: 10 km
Cloud details: partiellement nuageux 1189 m
couvert 1494 m
2020/01/29 15:30 LFQB 291530Z AUTO 27009KT 9999 SCT039 OVC049 09/04 Q1017